Terminal Aerodrome Forecast
Issued by NWS

Home | Current Version | Previous Version | Text Only | Print | Product List | Glossary Off
Versions: 1 2 3 4 5 6 7 8 9 10 11 12 13

000
FTUS43 KICT 281720
TAFHUT
TAF
KHUT 281720Z 2818/2918 02011KT P6SM SKC
      TEMPO 2818/2822 02012G21KT
     FM290100 03005KT P6SM SKC
     FM291300 02008KT P6SM SCT015=

USA.gov is the U.S. government's official web portal to all federal, state and local government web resources and services.